sensor_id;sensor_type;location;lat;lon;timestamp;P1;P2;P0
29460;PMS7003;16428;47.836;35.106;2023-06-26T00:01:42;33.00;31.00;21.00
29460;PMS7003;16428;47.836;35.106;2023-06-26T00:04:09;30.40;28.40;21.00
29460;PMS7003;16428;47.836;35.106;2023-06-26T00:06:41;24.20;24.20;19.40
29460;PMS7003;16428;47.836;35.106;2023-06-26T00:09:09;27.80;23.80;18.20
29460;PMS7003;16428;47.836;35.106;2023-06-26T00:11:37;28.00;27.00;20.20
29460;PMS7003;16428;47.836;35.106;2023-06-26T00:14:05;27.00;25.40;19.40
29460;PMS7003;16428;47.836;35.106;2023-06-26T00:16:33;31.40;25.80;18.00
29460;PMS7003;16428;47.836;35.106;2023-06-26T00:19:00;25.80;25.20;18.80
29460;PMS7003;16428;47.836;35.106;2023-06-26T00:21:27;28.60;26.40;19.20
29460;PMS7003;16428;47.836;35.106;2023-06-26T00:23:54;27.00;26.40;19.20
29460;PMS7003;16428;47.836;35.106;2023-06-26T00:26:21;28.60;24.60;19.00
29460;PMS7003;16428;47.836;35.106;2023-06-26T00:28:48;26.00;25.40;18.40
29460;PMS7003;16428;47.836;35.106;2023-06-26T00:31:15;27.80;27.80;20.40
29460;PMS7003;16428;47.836;35.106;2023-06-26T00:33:43;29.60;26.00;19.20
29460;PMS7003;16428;47.836;35.106;2023-06-26T00:36:10;29.00;27.80;19.00
29460;PMS7003;16428;47.836;35.106;2023-06-26T00:38:37;28.00;27.80;21.00
29460;PMS7003;16428;47.836;35.106;2023-06-26T00:41:08;32.40;28.80;21.00
29460;PMS7003;16428;47.836;35.106;2023-06-26T00:43:39;27.40;27.00;20.00
29460;PMS7003;16428;47.836;35.106;2023-06-26T00:46:09;29.40;29.20;20.00
29460;PMS7003;16428;47.836;35.106;2023-06-26T00:48:37;27.00;27.00;20.60
29460;PMS7003;16428;47.836;35.106;2023-06-26T00:51:11;26.20;24.80;16.20
29460;PMS7003;16428;47.836;35.106;2023-06-26T00:53:39;34.40;29.40;21.00
29460;PMS7003;16428;47.836;35.106;2023-06-26T00:56:07;27.20;26.80;19.60
29460;PMS7003;16428;47.836;35.106;2023-06-26T00:58:35;30.60;29.00;21.00
29460;PMS7003;16428;47.836;35.106;2023-06-26T01:01:02;29.00;28.00;19.80
29460;PMS7003;16428;47.836;35.106;2023-06-26T01:03:32;34.75;30.00;22.00
29460;PMS7003;16428;47.836;35.106;2023-06-26T01:06:00;32.00;29.00;20.40
29460;PMS7003;16428;47.836;35.106;2023-06-26T01:08:28;38.75;31.50;22.50
29460;PMS7003;16428;47.836;35.106;2023-06-26T01:10:56;44.00;37.00;25.75
29460;PMS7003;16428;47.836;35.106;2023-06-26T01:13:25;36.50;33.50;23.00
29460;PMS7003;16428;47.836;35.106;2023-06-26T01:15:52;38.00;31.75;23.00
29460;PMS7003;16428;47.836;35.106;2023-06-26T01:18:20;41.75;36.25;24.75
29460;PMS7003;16428;47.836;35.106;2023-06-26T01:20:48;36.00;32.75;23.50
29460;PMS7003;16428;47.836;35.106;2023-06-26T01:23:17;33.75;31.00;21.25
29460;PMS7003;16428;47.836;35.106;2023-06-26T01:28:19;30.75;27.00;18.75
29460;PMS7003;16428;47.836;35.106;2023-06-26T01:30:47;34.75;31.75;22.00
29460;PMS7003;16428;47.836;35.106;2023-06-26T01:33:15;43.00;35.00;23.00
29460;PMS7003;16428;47.836;35.106;2023-06-26T01:35:42;48.25;37.50;26.25
29460;PMS7003;16428;47.836;35.106;2023-06-26T01:38:17;44.25;36.75;27.00
29460;PMS7003;16428;47.836;35.106;2023-06-26T01:40:50;42.75;34.50;24.25
29460;PMS7003;16428;47.836;35.106;2023-06-26T01:45:50;38.75;34.50;26.25
29460;PMS7003;16428;47.836;35.106;2023-06-26T01:48:23;39.00;33.25;24.25
29460;PMS7003;16428;47.836;35.106;2023-06-26T01:50:54;41.50;35.00;24.75
29460;PMS7003;16428;47.836;35.106;2023-06-26T01:53:26;43.50;37.25;27.00
29460;PMS7003;16428;47.836;35.106;2023-06-26T01:56:00;44.25;36.25;25.50
29460;PMS7003;16428;47.836;35.106;2023-06-26T01:58:35;36.50;32.75;22.75
29460;PMS7003;16428;47.836;35.106;2023-06-26T02:01:05;44.00;37.50;26.75
29460;PMS7003;16428;47.836;35.106;2023-06-26T02:03:34;42.00;36.00;25.00
29460;PMS7003;16428;47.836;35.106;2023-06-26T02:06:02;38.50;34.50;23.75
29460;PMS7003;16428;47.836;35.106;2023-06-26T02:08:30;45.75;37.00;26.25
29460;PMS7003;16428;47.836;35.106;2023-06-26T02:10:57;41.00;34.50;26.50
29460;PMS7003;16428;47.836;35.106;2023-06-26T02:13:24;45.75;37.75;26.50
29460;PMS7003;16428;47.836;35.106;2023-06-26T02:15:52;38.75;33.50;25.25
29460;PMS7003;16428;47.836;35.106;2023-06-26T02:18:19;46.25;38.00;27.00
29460;PMS7003;16428;47.836;35.106;2023-06-26T02:20:49;43.75;35.25;24.25
29460;PMS7003;16428;47.836;35.106;2023-06-26T02:23:16;46.50;37.00;26.00
29460;PMS7003;16428;47.836;35.106;2023-06-26T02:25:43;43.50;37.25;26.75
29460;PMS7003;16428;47.836;35.106;2023-06-26T02:28:10;44.25;38.25;26.00
29460;PMS7003;16428;47.836;35.106;2023-06-26T02:30:37;39.75;35.00;25.50
29460;PMS7003;16428;47.836;35.106;2023-06-26T02:33:05;50.00;41.25;30.00
29460;PMS7003;16428;47.836;35.106;2023-06-26T02:35:33;47.75;40.00;27.25
29460;PMS7003;16428;47.836;35.106;2023-06-26T02:38:00;43.75;37.75;25.75
29460;PMS7003;16428;47.836;35.106;2023-06-26T02:40:28;43.50;37.25;27.25
29460;PMS7003;16428;47.836;35.106;2023-06-26T02:42:55;45.00;38.25;27.00
29460;PMS7003;16428;47.836;35.106;2023-06-26T02:45:22;45.00;39.00;27.50
29460;PMS7003;16428;47.836;35.106;2023-06-26T02:47:50;43.75;37.00;26.00
29460;PMS7003;16428;47.836;35.106;2023-06-26T02:50:17;43.50;37.50;27.00
29460;PMS7003;16428;47.836;35.106;2023-06-26T02:52:44;32.75;31.00;21.75
29460;PMS7003;16428;47.836;35.106;2023-06-26T02:55:14;37.50;30.75;21.25
29460;PMS7003;16428;47.836;35.106;2023-06-26T02:57:41;30.75;28.75;21.50
29460;PMS7003;16428;47.836;35.106;2023-06-26T03:00:08;33.50;31.00;21.75
29460;PMS7003;16428;47.836;35.106;2023-06-26T03:02:38;39.50;33.75;24.75
29460;PMS7003;16428;47.836;35.106;2023-06-26T03:05:05;13.50;12.00;11.75
29460;PMS7003;16428;47.836;35.106;2023-06-26T03:07:34;37.40;32.60;22.80
29460;PMS7003;16428;47.836;35.106;2023-06-26T03:10:01;30.00;28.20;20.00
29460;PMS7003;16428;47.836;35.106;2023-06-26T03:12:28;42.50;35.00;25.25
29460;PMS7003;16428;47.836;35.106;2023-06-26T03:14:56;38.50;34.50;23.25
29460;PMS7003;16428;47.836;35.106;2023-06-26T03:17:24;37.25;32.75;23.00
29460;PMS7003;16428;47.836;35.106;2023-06-26T03:19:52;37.40;33.60;24.20
29460;PMS7003;16428;47.836;35.106;2023-06-26T03:22:19;36.00;32.60;22.60
29460;PMS7003;16428;47.836;35.106;2023-06-26T03:24:46;41.75;35.50;24.75
29460;PMS7003;16428;47.836;35.106;2023-06-26T03:27:13;39.80;35.00;24.00
29460;PMS7003;16428;47.836;35.106;2023-06-26T03:29:43;41.25;36.25;23.25
29460;PMS7003;16428;47.836;35.106;2023-06-26T03:32:10;40.25;34.75;25.25
29460;PMS7003;16428;47.836;35.106;2023-06-26T03:34:38;46.25;38.50;25.25
29460;PMS7003;16428;47.836;35.106;2023-06-26T03:37:05;44.75;35.75;25.25
29460;PMS7003;16428;47.836;35.106;2023-06-26T03:39:32;44.50;37.25;27.00
29460;PMS7003;16428;47.836;35.106;2023-06-26T03:41:59;45.75;38.00;27.00
29460;PMS7003;16428;47.836;35.106;2023-06-26T03:44:27;42.50;37.50;24.75
29460;PMS7003;16428;47.836;35.106;2023-06-26T03:46:55;55.50;45.00;31.50
29460;PMS7003;16428;47.836;35.106;2023-06-26T03:49:22;48.75;41.50;28.25
29460;PMS7003;16428;47.836;35.106;2023-06-26T03:51:49;50.00;39.25;26.75
29460;PMS7003;16428;47.836;35.106;2023-06-26T03:54:16;48.50;40.75;28.25
29460;PMS7003;16428;47.836;35.106;2023-06-26T03:56:43;47.25;39.50;27.50
29460;PMS7003;16428;47.836;35.106;2023-06-26T03:59:10;46.25;37.00;25.50
29460;PMS7003;16428;47.836;35.106;2023-06-26T04:01:38;46.50;39.25;27.50
29460;PMS7003;16428;47.836;35.106;2023-06-26T04:04:05;45.25;38.75;26.00
29460;PMS7003;16428;47.836;35.106;2023-06-26T04:06:33;42.20;35.40;25.00
29460;PMS7003;16428;47.836;35.106;2023-06-26T04:09:00;50.00;40.00;27.00
29460;PMS7003;16428;47.836;35.106;2023-06-26T04:11:28;46.50;39.00;26.50
29460;PMS7003;16428;47.836;35.106;2023-06-26T04:13:55;48.25;39.25;27.00
29460;PMS7003;16428;47.836;35.106;2023-06-26T04:16:22;49.50;40.50;27.75
29460;PMS7003;16428;47.836;35.106;2023-06-26T04:18:52;47.50;40.75;29.00
29460;PMS7003;16428;47.836;35.106;2023-06-26T04:21:19;52.25;43.25;30.50
29460;PMS7003;16428;47.836;35.106;2023-06-26T04:23:46;59.25;47.50;32.25
29460;PMS7003;16428;47.836;35.106;2023-06-26T04:26:14;61.25;49.75;34.75
29460;PMS7003;16428;47.836;35.106;2023-06-26T04:28:41;59.00;47.75;33.25
29460;PMS7003;16428;47.836;35.106;2023-06-26T04:31:09;51.75;43.50;32.75
29460;PMS7003;16428;47.836;35.106;2023-06-26T04:33:38;52.00;42.50;30.50
29460;PMS7003;16428;47.836;35.106;2023-06-26T04:36:08;51.75;41.25;29.75
29460;PMS7003;16428;47.836;35.106;2023-06-26T04:38:36;48.50;41.75;29.25
29460;PMS7003;16428;47.836;35.106;2023-06-26T04:41:03;46.25;40.00;28.00
29460;PMS7003;16428;47.836;35.106;2023-06-26T04:43:31;51.75;41.00;28.50
29460;PMS7003;16428;47.836;35.106;2023-06-26T04:45:58;51.25;41.75;28.75
29460;PMS7003;16428;47.836;35.106;2023-06-26T04:48:26;50.75;43.25;30.25
29460;PMS7003;16428;47.836;35.106;2023-06-26T04:50:54;49.25;41.75;29.25
29460;PMS7003;16428;47.836;35.106;2023-06-26T04:53:23;50.50;40.75;29.00
29460;PMS7003;16428;47.836;35.106;2023-06-26T04:55:51;50.50;43.00;30.25
29460;PMS7003;16428;47.836;35.106;2023-06-26T04:58:19;52.75;43.75;31.00
29460;PMS7003;16428;47.836;35.106;2023-06-26T05:00:47;54.00;44.50;30.50
29460;PMS7003;16428;47.836;35.106;2023-06-26T05:03:16;56.25;45.75;32.25
29460;PMS7003;16428;47.836;35.106;2023-06-26T05:05:44;57.25;46.00;32.50
29460;PMS7003;16428;47.836;35.106;2023-06-26T05:08:15;56.25;45.75;32.00
29460;PMS7003;16428;47.836;35.106;2023-06-26T05:10:49;57.00;45.75;32.25
29460;PMS7003;16428;47.836;35.106;2023-06-26T05:13:16;63.25;50.25;36.50
29460;PMS7003;16428;47.836;35.106;2023-06-26T05:15:46;59.50;47.50;32.75
29460;PMS7003;16428;47.836;35.106;2023-06-26T05:18:13;59.67;47.00;33.67
29460;PMS7003;16428;47.836;35.106;2023-06-26T05:20:41;59.25;47.00;32.75
29460;PMS7003;16428;47.836;35.106;2023-06-26T05:23:08;56.25;45.75;33.00
29460;PMS7003;16428;47.836;35.106;2023-06-26T05:25:40;60.75;48.50;32.00
29460;PMS7003;16428;47.836;35.106;2023-06-26T05:28:08;63.50;51.00;36.00
29460;PMS7003;16428;47.836;35.106;2023-06-26T05:30:37;71.00;57.50;38.25
29460;PMS7003;16428;47.836;35.106;2023-06-26T05:33:05;67.00;54.25;37.75
29460;PMS7003;16428;47.836;35.106;2023-06-26T05:35:33;67.00;53.75;38.25
29460;PMS7003;16428;47.836;35.106;2023-06-26T05:38:02;70.25;51.75;34.50
29460;PMS7003;16428;47.836;35.106;2023-06-26T05:40:30;66.00;53.50;37.50
29460;PMS7003;16428;47.836;35.106;2023-06-26T05:42:57;64.00;50.25;35.00
29460;PMS7003;16428;47.836;35.106;2023-06-26T05:45:25;60.25;48.50;33.50
29460;PMS7003;16428;47.836;35.106;2023-06-26T05:47:52;57.50;44.00;29.75
29460;PMS7003;16428;47.836;35.106;2023-06-26T05:50:20;57.75;47.00;32.00
29460;PMS7003;16428;47.836;35.106;2023-06-26T05:52:48;48.75;41.75;28.00
29460;PMS7003;16428;47.836;35.106;2023-06-26T05:55:15;54.75;44.75;29.25
29460;PMS7003;16428;47.836;35.106;2023-06-26T05:57:43;53.75;44.25;31.25
29460;PMS7003;16428;47.836;35.106;2023-06-26T06:00:12;55.75;44.50;30.25
29460;PMS7003;16428;47.836;35.106;2023-06-26T06:02:41;51.60;41.60;28.20
29460;PMS7003;16428;47.836;35.106;2023-06-26T06:05:09;16.60;15.40;4.40
29460;PMS7003;16428;47.836;35.106;2023-06-26T06:07:37;42.00;35.80;26.80
29460;PMS7003;16428;47.836;35.106;2023-06-26T06:10:04;43.60;35.80;24.40
29460;PMS7003;16428;47.836;35.106;2023-06-26T06:12:32;45.80;38.40;26.20
29460;PMS7003;16428;47.836;35.106;2023-06-26T06:14:59;42.20;37.20;26.00
29460;PMS7003;16428;47.836;35.106;2023-06-26T06:17:27;43.00;36.80;23.20
29460;PMS7003;16428;47.836;35.106;2023-06-26T06:19:55;43.40;37.80;25.40
29460;PMS7003;16428;47.836;35.106;2023-06-26T06:22:22;44.40;37.60;25.40
29460;PMS7003;16428;47.836;35.106;2023-06-26T06:24:50;50.00;42.00;27.75
29460;PMS7003;16428;47.836;35.106;2023-06-26T06:27:18;37.80;33.00;22.80
29460;PMS7003;16428;47.836;35.106;2023-06-26T06:29:45;40.40;35.40;24.40
29460;PMS7003;16428;47.836;35.106;2023-06-26T06:32:12;49.60;41.00;27.40
29460;PMS7003;16428;47.836;35.106;2023-06-26T06:34:39;40.40;35.60;25.00
29460;PMS7003;16428;47.836;35.106;2023-06-26T06:37:06;44.80;37.80;26.40
29460;PMS7003;16428;47.836;35.106;2023-06-26T06:39:34;43.20;37.60;25.20
29460;PMS7003;16428;47.836;35.106;2023-06-26T06:42:01;47.60;36.60;25.60
29460;PMS7003;16428;47.836;35.106;2023-06-26T06:44:28;45.00;38.00;25.40
29460;PMS7003;16428;47.836;35.106;2023-06-26T06:46:57;44.20;38.20;25.20
29460;PMS7003;16428;47.836;35.106;2023-06-26T06:49:24;49.25;41.25;28.00
29460;PMS7003;16428;47.836;35.106;2023-06-26T06:51:51;49.75;41.00;27.25
29460;PMS7003;16428;47.836;35.106;2023-06-26T06:54:19;42.50;35.50;25.25
29460;PMS7003;16428;47.836;35.106;2023-06-26T06:56:46;51.25;42.00;29.00
29460;PMS7003;16428;47.836;35.106;2023-06-26T06:59:13;50.00;42.25;28.50
29460;PMS7003;16428;47.836;35.106;2023-06-26T07:01:40;55.50;45.50;30.00
29460;PMS7003;16428;47.836;35.106;2023-06-26T07:04:08;54.50;44.25;29.00
29460;PMS7003;16428;47.836;35.106;2023-06-26T07:06:36;57.25;45.50;31.00
29460;PMS7003;16428;47.836;35.106;2023-06-26T07:09:03;59.00;46.25;30.00
29460;PMS7003;16428;47.836;35.106;2023-06-26T07:11:32;54.75;45.75;31.25
29460;PMS7003;16428;47.836;35.106;2023-06-26T07:13:59;58.75;47.75;31.00
29460;PMS7003;16428;47.836;35.106;2023-06-26T07:16:27;58.25;47.00;31.50
29460;PMS7003;16428;47.836;35.106;2023-06-26T07:18:54;58.00;45.25;30.50
29460;PMS7003;16428;47.836;35.106;2023-06-26T07:21:22;59.50;48.50;31.25
29460;PMS7003;16428;47.836;35.106;2023-06-26T07:23:52;56.00;47.00;30.50
29460;PMS7003;16428;47.836;35.106;2023-06-26T07:26:19;60.25;48.50;32.00
29460;PMS7003;16428;47.836;35.106;2023-06-26T07:29:08;58.75;49.00;32.00
29460;PMS7003;16428;47.836;35.106;2023-06-26T07:31:35;60.00;49.00;33.00
29460;PMS7003;16428;47.836;35.106;2023-06-26T07:34:02;61.00;49.25;33.00
29460;PMS7003;16428;47.836;35.106;2023-06-26T07:36:30;57.00;46.75;30.75
29460;PMS7003;16428;47.836;35.106;2023-06-26T07:38:57;55.50;45.50;30.25
29460;PMS7003;16428;47.836;35.106;2023-06-26T07:41:26;59.75;48.75;32.50
29460;PMS7003;16428;47.836;35.106;2023-06-26T07:43:53;60.50;48.00;32.00
29460;PMS7003;16428;47.836;35.106;2023-06-26T07:46:20;59.75;47.50;31.25
29460;PMS7003;16428;47.836;35.106;2023-06-26T07:48:47;58.50;46.00;31.00
29460;PMS7003;16428;47.836;35.106;2023-06-26T07:51:14;57.50;46.50;30.00
29460;PMS7003;16428;47.836;35.106;2023-06-26T07:53:41;58.75;49.25;32.00
29460;PMS7003;16428;47.836;35.106;2023-06-26T07:56:08;64.25;52.25;34.00
29460;PMS7003;16428;47.836;35.106;2023-06-26T07:58:37;58.50;48.25;33.00
29460;PMS7003;16428;47.836;35.106;2023-06-26T08:01:05;61.75;49.50;33.75
29460;PMS7003;16428;47.836;35.106;2023-06-26T08:03:33;59.25;47.00;30.75
29460;PMS7003;16428;47.836;35.106;2023-06-26T08:06:02;59.50;47.50;32.00
29460;PMS7003;16428;47.836;35.106;2023-06-26T08:08:30;61.50;48.50;31.75
29460;PMS7003;16428;47.836;35.106;2023-06-26T08:10:57;59.25;45.75;31.50
29460;PMS7003;16428;47.836;35.106;2023-06-26T08:13:25;59.00;45.00;31.25
29460;PMS7003;16428;47.836;35.106;2023-06-26T08:15:52;54.50;43.75;30.00
29460;PMS7003;16428;47.836;35.106;2023-06-26T08:18:19;51.00;41.75;27.25
29460;PMS7003;16428;47.836;35.106;2023-06-26T08:20:47;53.75;44.00;30.75
29460;PMS7003;16428;47.836;35.106;2023-06-26T08:23:14;54.00;44.50;29.50
29460;PMS7003;16428;47.836;35.106;2023-06-26T08:25:41;59.50;46.75;32.75
29460;PMS7003;16428;47.836;35.106;2023-06-26T08:28:08;58.25;46.25;30.75
29460;PMS7003;16428;47.836;35.106;2023-06-26T08:30:36;56.25;43.25;30.00
29460;PMS7003;16428;47.836;35.106;2023-06-26T08:33:03;52.25;44.25;30.00
29460;PMS7003;16428;47.836;35.106;2023-06-26T08:35:31;51.75;43.00;28.50
29460;PMS7003;16428;47.836;35.106;2023-06-26T08:37:58;51.50;41.75;28.75
29460;PMS7003;16428;47.836;35.106;2023-06-26T08:40:25;49.75;41.25;27.50
29460;PMS7003;16428;47.836;35.106;2023-06-26T08:42:53;52.50;44.50;29.50
29460;PMS7003;16428;47.836;35.106;2023-06-26T08:45:21;53.25;43.00;30.00
29460;PMS7003;16428;47.836;35.106;2023-06-26T08:47:50;60.00;47.00;30.00
29460;PMS7003;16428;47.836;35.106;2023-06-26T08:50:20;54.75;43.00;30.50
29460;PMS7003;16428;47.836;35.106;2023-06-26T08:55:46;52.25;42.75;29.00
29460;PMS7003;16428;47.836;35.106;2023-06-26T08:58:18;52.75;42.50;28.00
29460;PMS7003;16428;47.836;35.106;2023-06-26T09:00:46;52.25;42.25;29.50
29460;PMS7003;16428;47.836;35.106;2023-06-26T09:03:14;50.00;42.00;28.50
29460;PMS7003;16428;47.836;35.106;2023-06-26T09:05:42;46.75;38.00;27.00
29460;PMS7003;16428;47.836;35.106;2023-06-26T09:08:09;46.50;39.75;27.00
29460;PMS7003;16428;47.836;35.106;2023-06-26T09:10:37;46.50;37.00;25.75
29460;PMS7003;16428;47.836;35.106;2023-06-26T09:13:05;40.00;35.20;25.40
29460;PMS7003;16428;47.836;35.106;2023-06-26T09:15:46;38.60;33.60;23.60
29460;PMS7003;16428;47.836;35.106;2023-06-26T09:18:18;37.20;32.40;22.60
29460;PMS7003;16428;47.836;35.106;2023-06-26T09:20:48;35.20;32.00;22.80
29460;PMS7003;16428;47.836;35.106;2023-06-26T09:23:16;32.80;29.80;21.20
29460;PMS7003;16428;47.836;35.106;2023-06-26T09:25:44;28.20;27.80;21.40
29460;PMS7003;16428;47.836;35.106;2023-06-26T09:28:14;24.80;24.80;18.40
29460;PMS7003;16428;47.836;35.106;2023-06-26T09:30:41;25.60;24.80;20.60
29460;PMS7003;16428;47.836;35.106;2023-06-26T09:33:15;19.00;19.00;9.80
29460;PMS7003;16428;47.836;35.106;2023-06-26T09:35:44;24.80;24.80;19.20
29460;PMS7003;16428;47.836;35.106;2023-06-26T09:38:13;25.40;25.20;17.80
29460;PMS7003;16428;47.836;35.106;2023-06-26T09:40:45;25.40;20.60;15.00
29460;PMS7003;16428;47.836;35.106;2023-06-26T09:43:12;30.00;25.80;19.20
29460;PMS7003;16428;47.836;35.106;2023-06-26T09:45:40;22.80;22.80;17.20
29460;PMS7003;16428;47.836;35.106;2023-06-26T09:48:08;28.00;25.00;19.00
29460;PMS7003;16428;47.836;35.106;2023-06-26T09:50:35;24.00;22.60;17.40
29460;PMS7003;16428;47.836;35.106;2023-06-26T09:53:12;26.00;24.20;19.00
29460;PMS7003;16428;47.836;35.106;2023-06-26T09:55:40;27.20;26.20;20.40
29460;PMS7003;16428;47.836;35.106;2023-06-26T09:58:10;28.60;26.40;19.00
29460;PMS7003;16428;47.836;35.106;2023-06-26T10:00:42;26.60;26.60;19.20
29460;PMS7003;16428;47.836;35.106;2023-06-26T10:03:10;28.80;28.60;21.20
29460;PMS7003;16428;47.836;35.106;2023-06-26T10:05:40;27.60;27.60;21.00
29460;PMS7003;16428;47.836;35.106;2023-06-26T10:08:08;30.40;28.80;21.00
29460;PMS7003;16428;47.836;35.106;2023-06-26T10:10:36;32.40;29.80;21.40
29460;PMS7003;16428;47.836;35.106;2023-06-26T10:13:19;30.00;29.20;19.80
29460;PMS7003;16428;47.836;35.106;2023-06-26T10:15:51;29.80;29.20;19.40
29460;PMS7003;16428;47.836;35.106;2023-06-26T10:18:21;25.40;24.60;19.00
29460;PMS7003;16428;47.836;35.106;2023-06-26T10:20:53;31.00;28.00;20.00
29460;PMS7003;16428;47.836;35.106;2023-06-26T10:23:23;35.40;32.20;22.60
29460;PMS7003;16428;47.836;35.106;2023-06-26T10:25:55;31.20;30.20;20.20
29460;PMS7003;16428;47.836;35.106;2023-06-26T10:28:24;28.60;28.40;19.20
29460;PMS7003;16428;47.836;35.106;2023-06-26T10:30:53;31.40;30.20;22.40
29460;PMS7003;16428;47.836;35.106;2023-06-26T10:33:23;33.00;29.40;20.40
29460;PMS7003;16428;47.836;35.106;2023-06-26T10:35:51;36.00;30.60;21.20
29460;PMS7003;16428;47.836;35.106;2023-06-26T10:38:21;36.60;30.80;22.00
29460;PMS7003;16428;47.836;35.106;2023-06-26T10:40:49;26.20;26.20;20.40
29460;PMS7003;16428;47.836;35.106;2023-06-26T10:43:16;35.80;27.80;21.00
29460;PMS7003;16428;47.836;35.106;2023-06-26T10:45:48;34.80;32.00;22.20
29460;PMS7003;16428;47.836;35.106;2023-06-26T10:48:23;30.00;29.00;20.40
29460;PMS7003;16428;47.836;35.106;2023-06-26T10:50:56;33.00;30.60;22.60
29460;PMS7003;16428;47.836;35.106;2023-06-26T10:53:23;32.40;30.40;22.20
29460;PMS7003;16428;47.836;35.106;2023-06-26T10:56:01;27.60;27.60;21.20
29460;PMS7003;16428;47.836;35.106;2023-06-26T11:01:19;24.40;21.80;17.00
29460;PMS7003;16428;47.836;35.106;2023-06-26T11:04:10;21.80;21.80;15.20
29460;PMS7003;16428;47.836;35.106;2023-06-26T11:06:37;21.00;19.80;14.80
29460;PMS7003;16428;47.836;35.106;2023-06-26T11:09:07;23.00;22.60;16.40
29460;PMS7003;16428;47.836;35.106;2023-06-26T11:14:22;17.80;17.80;14.40
29460;PMS7003;16428;47.836;35.106;2023-06-26T11:16:50;21.60;21.60;15.20
29460;PMS7003;16428;47.836;35.106;2023-06-26T11:19:18;19.20;18.80;14.00
29460;PMS7003;16428;47.836;35.106;2023-06-26T11:21:46;22.40;21.00;16.40
29460;PMS7003;16428;47.836;35.106;2023-06-26T11:24:14;20.60;19.00;16.00
29460;PMS7003;16428;47.836;35.106;2023-06-26T11:26:43;16.80;16.80;14.00
29460;PMS7003;16428;47.836;35.106;2023-06-26T11:29:12;15.00;15.00;11.40
29460;PMS7003;16428;47.836;35.106;2023-06-26T11:31:40;20.40;20.40;15.60
29460;PMS7003;16428;47.836;35.106;2023-06-26T11:34:09;20.00;20.00;16.00
29460;PMS7003;16428;47.836;35.106;2023-06-26T11:36:39;22.60;21.00;14.60
29460;PMS7003;16428;47.836;35.106;2023-06-26T11:39:09;18.60;17.80;14.60
29460;PMS7003;16428;47.836;35.106;2023-06-26T11:41:38;16.20;16.20;12.60
29460;PMS7003;16428;47.836;35.106;2023-06-26T11:44:06;19.60;18.20;13.80
29460;PMS7003;16428;47.836;35.106;2023-06-26T11:46:36;19.60;18.80;15.20
29460;PMS7003;16428;47.836;35.106;2023-06-26T11:49:05;18.20;16.40;12.00
29460;PMS7003;16428;47.836;35.106;2023-06-26T11:51:34;16.00;16.00;12.40
29460;PMS7003;16428;47.836;35.106;2023-06-26T11:54:07;18.80;16.00;12.00
29460;PMS7003;16428;47.836;35.106;2023-06-26T11:56:36;17.60;17.60;13.40
29460;PMS7003;16428;47.836;35.106;2023-06-26T11:59:04;15.80;15.80;12.80
29460;PMS7003;16428;47.836;35.106;2023-06-26T12:01:44;20.80;18.20;15.40
29460;PMS7003;16428;47.836;35.106;2023-06-26T12:04:12;14.60;14.60;12.80
29460;PMS7003;16428;47.836;35.106;2023-06-26T12:06:45;16.60;15.20;13.00
29460;PMS7003;16428;47.836;35.106;2023-06-26T12:09:15;17.20;17.20;13.00
29460;PMS7003;16428;47.836;35.106;2023-06-26T12:11:46;22.00;22.00;16.80
29460;PMS7003;16428;47.836;35.106;2023-06-26T12:14:19;21.40;21.40;16.40
29460;PMS7003;16428;47.836;35.106;2023-06-26T12:16:47;18.80;18.80;14.80
29460;PMS7003;16428;47.836;35.106;2023-06-26T12:19:15;19.20;19.20;14.40
29460;PMS7003;16428;47.836;35.106;2023-06-26T12:21:46;23.60;21.00;14.00
29460;PMS7003;16428;47.836;35.106;2023-06-26T12:24:16;20.20;17.40;13.20
29460;PMS7003;16428;47.836;35.106;2023-06-26T12:26:44;17.40;17.40;14.80
29460;PMS7003;16428;47.836;35.106;2023-06-26T12:29:19;19.20;17.00;12.40
29460;PMS7003;16428;47.836;35.106;2023-06-26T12:31:49;20.20;18.20;15.40
29460;PMS7003;16428;47.836;35.106;2023-06-26T12:34:19;18.80;18.60;14.60
29460;PMS7003;16428;47.836;35.106;2023-06-26T12:36:48;24.00;19.00;14.20
29460;PMS7003;16428;47.836;35.106;2023-06-26T12:39:17;17.60;17.60;14.00
29460;PMS7003;16428;47.836;35.106;2023-06-26T12:41:53;19.60;17.60;14.40
29460;PMS7003;16428;47.836;35.106;2023-06-26T12:44:24;19.00;19.00;16.00
29460;PMS7003;16428;47.836;35.106;2023-06-26T12:46:54;18.40;18.40;14.00
29460;PMS7003;16428;47.836;35.106;2023-06-26T12:49:29;19.80;18.40;16.00
29460;PMS7003;16428;47.836;35.106;2023-06-26T12:51:59;15.40;15.40;11.40
29460;PMS7003;16428;47.836;35.106;2023-06-26T12:54:28;18.60;17.60;15.00
29460;PMS7003;16428;47.836;35.106;2023-06-26T12:56:56;13.20;13.20;12.60
29460;PMS7003;16428;47.836;35.106;2023-06-26T12:59:23;10.00;10.00;9.00
29460;PMS7003;16428;47.836;35.106;2023-06-26T13:01:50;13.80;13.80;10.80
29460;PMS7003;16428;47.836;35.106;2023-06-26T13:04:18;12.60;12.60;10.40
29460;PMS7003;16428;47.836;35.106;2023-06-26T13:06:45;14.80;14.80;11.60
29460;PMS7003;16428;47.836;35.106;2023-06-26T13:09:13;10.00;10.00;8.40
29460;PMS7003;16428;47.836;35.106;2023-06-26T13:11:42;9.60;9.60;6.40
29460;PMS7003;16428;47.836;35.106;2023-06-26T13:14:09;12.60;11.00;10.40
29460;PMS7003;16428;47.836;35.106;2023-06-26T13:16:39;12.60;12.60;10.80
29460;PMS7003;16428;47.836;35.106;2023-06-26T13:19:06;13.20;12.40;10.60
29460;PMS7003;16428;47.836;35.106;2023-06-26T13:21:34;20.20;20.00;15.00
29460;PMS7003;16428;47.836;35.106;2023-06-26T13:24:03;12.60;12.40;10.40
29460;PMS7003;16428;47.836;35.106;2023-06-26T13:26:31;12.80;12.80;10.00
29460;PMS7003;16428;47.836;35.106;2023-06-26T13:29:01;16.60;16.60;13.60
29460;PMS7003;16428;47.836;35.106;2023-06-26T13:31:29;14.60;14.60;11.00
29460;PMS7003;16428;47.836;35.106;2023-06-26T13:33:57;18.60;17.80;13.20
29460;PMS7003;16428;47.836;35.106;2023-06-26T13:36:26;12.80;12.80;10.40
29460;PMS7003;16428;47.836;35.106;2023-06-26T13:38:53;18.00;16.60;13.80
29460;PMS7003;16428;47.836;35.106;2023-06-26T13:41:24;12.00;12.00;10.40
29460;PMS7003;16428;47.836;35.106;2023-06-26T13:43:52;12.40;12.40;10.20
29460;PMS7003;16428;47.836;35.106;2023-06-26T13:46:24;14.40;12.80;10.40
29460;PMS7003;16428;47.836;35.106;2023-06-26T13:48:51;18.60;12.20;10.20
29460;PMS7003;16428;47.836;35.106;2023-06-26T13:51:19;14.40;14.40;11.40
29460;PMS7003;16428;47.836;35.106;2023-06-26T13:53:46;13.40;13.40;11.60
29460;PMS7003;16428;47.836;35.106;2023-06-26T13:56:13;17.00;17.00;13.20